createdAt,value
2023-08-03T00:00:04.287Z,5.93
2023-08-03T00:00:16.040Z,6.82
2023-08-03T00:00:27.711Z,5.72
2023-08-03T00:00:39.521Z,5.22
2023-08-03T00:00:51.319Z,4.75
2023-08-03T00:01:03.963Z,4.38
2023-08-03T00:01:15.759Z,4.65
2023-08-03T00:01:27.720Z,4.45
2023-08-03T00:01:39.518Z,4.85
2023-08-03T00:01:54.256Z,5.38
2023-08-03T00:02:06.208Z,6.32
2023-08-03T00:02:18.111Z,6.47
2023-08-03T00:02:34.974Z,4.85
2023-08-03T00:02:47.442Z,4.75
2023-08-03T00:03:00.561Z,4.75
2023-08-03T00:03:12.931Z,4.93
2023-08-03T00:03:25.018Z,4.55
2023-08-03T00:03:37.150Z,4.00
2023-08-03T00:03:49.402Z,4.68
2023-08-03T00:04:02.090Z,5.55
2023-08-03T00:04:14.306Z,5.47
2023-08-03T00:04:26.386Z,4.35
2023-08-03T00:04:38.773Z,4.60
2023-08-03T00:04:50.438Z,3.67
2023-08-03T00:05:03.042Z,3.67
2023-08-03T00:05:18.343Z,4.32
2023-08-03T00:05:30.043Z,4.68
2023-08-03T00:05:41.838Z,4.25
2023-08-03T00:05:55.024Z,4.43
2023-08-03T00:06:06.854Z,4.38
2023-08-03T00:06:18.868Z,4.53
2023-08-03T00:06:30.611Z,4.72
2023-08-03T00:06:42.602Z,6.13
2023-08-03T00:06:54.635Z,6.32
2023-08-03T00:07:07.550Z,6.35
2023-08-03T00:07:19.437Z,5.95
2023-08-03T00:07:32.314Z,5.32
2023-08-03T00:07:44.420Z,5.95
2023-08-03T00:07:56.174Z,6.75
2023-08-03T00:08:07.979Z,6.03
2023-08-03T00:08:19.714Z,5.45
2023-08-03T00:08:31.421Z,5.40
2023-08-03T00:08:44.098Z,4.85
2023-08-03T00:08:55.962Z,4.10
2023-08-03T00:09:07.707Z,4.78
2023-08-03T00:09:19.730Z,6.15
2023-08-03T00:09:31.412Z,5.53
2023-08-03T00:09:44.557Z,4.68
2023-08-03T00:09:56.394Z,4.18
2023-08-03T00:10:08.781Z,3.33
2023-08-03T00:10:21.544Z,3.70
2023-08-03T00:10:33.962Z,4.32
2023-08-03T00:10:46.672Z,4.88
2023-08-03T00:10:58.304Z,4.30
2023-08-03T00:11:09.991Z,5.65
2023-08-03T00:11:21.787Z,5.85
2023-08-03T00:11:33.498Z,5.35
2023-08-03T00:11:45.487Z,4.30
2023-08-03T00:11:57.360Z,4.15
2023-08-03T00:12:09.478Z,4.35
2023-08-03T00:12:23.225Z,4.30
2023-08-03T00:12:34.919Z,4.45
2023-08-03T00:12:47.169Z,3.45
2023-08-03T00:12:58.931Z,4.07
2023-08-03T00:13:11.021Z,5.10
2023-08-03T00:13:22.933Z,5.75
2023-08-03T00:13:34.911Z,5.50
2023-08-03T00:13:46.613Z,5.10
2023-08-03T00:13:58.426Z,5.00
2023-08-03T00:14:10.080Z,5.45
2023-08-03T00:14:23.113Z,5.40
2023-08-03T00:14:34.950Z,5.07
2023-08-03T00:14:46.743Z,5.60
2023-08-03T00:14:58.568Z,5.03
2023-08-03T00:15:10.943Z,5.50
2023-08-03T00:15:22.639Z,4.78
2023-08-03T00:15:34.342Z,4.70
2023-08-03T00:15:47.377Z,4.85
2023-08-03T00:15:59.788Z,5.53
2023-08-03T00:16:11.646Z,4.15
2023-08-03T00:16:23.577Z,4.13
2023-08-03T00:16:35.557Z,5.15
2023-08-03T00:16:47.458Z,6.25
2023-08-03T00:16:59.124Z,6.03
2023-08-03T00:17:11.418Z,5.10
2023-08-03T00:17:23.412Z,4.38
2023-08-03T00:17:36.282Z,4.75
2023-08-03T00:17:48.103Z,4.32
2023-08-03T00:17:59.964Z,3.85
2023-08-03T00:18:11.758Z,4.07
2023-08-03T00:18:23.453Z,4.72
2023-08-03T00:18:35.186Z,5.10
2023-08-03T00:18:46.928Z,4.63
2023-08-03T00:18:58.676Z,4.88
2023-08-03T00:19:10.848Z,4.53
2023-08-03T00:19:22.503Z,4.35
2023-08-03T00:19:34.406Z,3.83
2023-08-03T00:19:46.062Z,4.72
2023-08-03T00:19:59.516Z,4.68
2023-08-03T00:20:11.718Z,3.70
2023-08-03T00:20:23.811Z,4.05
2023-08-03T00:20:35.511Z,4.28
2023-08-03T00:20:49.113Z,4.25
2023-08-03T00:21:03.578Z,4.15
2023-08-03T00:21:15.283Z,5.35
2023-08-03T00:21:26.943Z,6.35
2023-08-03T00:21:39.052Z,6.03
2023-08-03T00:21:51.821Z,5.13
2023-08-03T00:22:03.608Z,4.63
2023-08-03T00:22:15.473Z,5.43
2023-08-03T00:22:27.470Z,5.25
2023-08-03T00:22:39.131Z,4.78
2023-08-03T00:22:50.938Z,5.60
2023-08-03T00:23:02.775Z,5.63
2023-08-03T00:23:14.891Z,5.35
2023-08-03T00:23:27.893Z,5.15
2023-08-03T00:23:39.646Z,4.68
2023-08-03T00:23:51.636Z,4.10
2023-08-03T00:24:03.970Z,4.50
2023-08-03T00:24:15.677Z,5.03
2023-08-03T00:24:27.635Z,5.50
2023-08-03T00:24:39.319Z,5.90
2023-08-03T00:24:51.246Z,5.25
2023-08-03T00:25:05.113Z,4.30
2023-08-03T00:25:16.978Z,4.38
2023-08-03T00:25:31.987Z,5.95
2023-08-03T00:25:43.915Z,7.22
2023-08-03T00:25:55.572Z,7.03
2023-08-03T00:26:07.327Z,5.05
2023-08-03T00:26:19.195Z,3.97
2023-08-03T00:26:31.414Z,4.63
2023-08-03T00:26:43.290Z,5.07
2023-08-03T00:26:54.947Z,4.78
2023-08-03T00:27:07.125Z,4.80
2023-08-03T00:27:18.991Z,5.18
2023-08-03T00:27:31.819Z,5.30
2023-08-03T00:27:43.491Z,6.05
2023-08-03T00:27:55.257Z,5.90
2023-08-03T00:28:07.035Z,4.88
2023-08-03T00:28:21.698Z,4.72
2023-08-03T00:28:33.471Z,3.95
2023-08-03T00:28:45.105Z,4.10
2023-08-03T00:28:56.979Z,4.18
2023-08-03T00:29:08.984Z,4.30
2023-08-03T00:29:20.638Z,6.55
2023-08-03T00:29:33.299Z,6.45
2023-08-03T00:29:45.028Z,6.53
2023-08-03T00:29:57.182Z,5.20
2023-08-03T00:30:09.286Z,6.10
2023-08-03T00:30:21.084Z,6.25
2023-08-03T00:30:33.315Z,6.18
2023-08-03T00:30:45.126Z,4.80
2023-08-03T00:30:57.926Z,5.57
2023-08-03T00:31:09.666Z,5.18
2023-08-03T00:31:21.667Z,6.97
2023-08-03T00:31:33.597Z,6.47
2023-08-03T00:31:45.517Z,5.40
2023-08-03T00:31:57.515Z,5.10
2023-08-03T00:32:09.221Z,5.10
2023-08-03T00:32:21.224Z,4.90
2023-08-03T00:32:33.097Z,5.28
2023-08-03T00:32:45.843Z,5.60
2023-08-03T00:32:57.631Z,5.03
2023-08-03T00:33:09.590Z,4.13
2023-08-03T00:33:21.309Z,4.80
2023-08-03T00:33:33.254Z,5.07
2023-08-03T00:33:45.360Z,5.00
2023-08-03T00:33:57.137Z,5.35
2023-08-03T00:34:08.971Z,4.72
2023-08-03T00:34:20.662Z,3.83
2023-08-03T00:34:33.613Z,4.07
2023-08-03T00:34:45.308Z,4.85
2023-08-03T00:34:57.182Z,4.82
2023-08-03T00:35:09.479Z,4.15
2023-08-03T00:35:21.235Z,4.32
2023-08-03T00:35:32.978Z,4.25
2023-08-03T00:35:44.680Z,3.90
2023-08-03T00:35:57.304Z,3.88
2023-08-03T00:36:11.493Z,3.40
2023-08-03T00:36:23.165Z,3.13
2023-08-03T00:36:34.847Z,4.53
2023-08-03T00:36:46.540Z,4.27
2023-08-03T00:36:58.399Z,3.88
2023-08-03T00:37:11.348Z,3.15
2023-08-03T00:37:23.114Z,4.30
2023-08-03T00:37:34.893Z,4.05
2023-08-03T00:37:46.594Z,4.82
2023-08-03T00:37:59.231Z,4.53
2023-08-03T00:38:10.892Z,4.90
2023-08-03T00:38:23.869Z,4.63
2023-08-03T00:38:35.638Z,5.50
2023-08-03T00:38:47.554Z,5.75
2023-08-03T00:38:59.302Z,5.93
2023-08-03T00:39:11.512Z,6.13
2023-08-03T00:39:23.347Z,6.13
2023-08-03T00:39:35.142Z,5.75
2023-08-03T00:39:46.943Z,4.82
2023-08-03T00:39:59.645Z,4.68
2023-08-03T00:40:11.917Z,5.13
2023-08-03T00:40:23.848Z,5.30
2023-08-03T00:40:35.774Z,5.22
2023-08-03T00:40:48.010Z,4.68
2023-08-03T00:40:59.886Z,4.70
2023-08-03T00:41:11.566Z,5.47
2023-08-03T00:41:23.593Z,5.28
2023-08-03T00:41:35.547Z,4.63
2023-08-03T00:41:48.165Z,4.43
2023-08-03T00:42:00.021Z,5.85
2023-08-03T00:42:11.863Z,5.57
2023-08-03T00:42:23.686Z,5.18
2023-08-03T00:42:35.412Z,5.50
2023-08-03T00:42:47.105Z,5.55
2023-08-03T00:42:58.993Z,5.57
2023-08-03T00:43:11.953Z,5.07
2023-08-03T00:43:23.890Z,4.10
2023-08-03T00:43:35.657Z,3.95
2023-08-03T00:43:47.359Z,4.35
2023-08-03T00:43:59.062Z,4.57
2023-08-03T00:44:10.762Z,3.50
2023-08-03T00:44:22.697Z,3.80
2023-08-03T00:44:34.867Z,4.15
2023-08-03T00:44:46.541Z,4.20
2023-08-03T00:44:58.432Z,4.47
2023-08-03T00:45:12.535Z,4.20
2023-08-03T00:45:24.484Z,3.83
2023-08-03T00:45:36.593Z,5.75
2023-08-03T00:45:48.268Z,5.30
2023-08-03T00:46:00.140Z,4.75
2023-08-03T00:46:11.817Z,4.00
2023-08-03T00:46:23.823Z,4.47
2023-08-03T00:46:35.852Z,4.80
2023-08-03T00:46:47.696Z,5.50
2023-08-03T00:46:59.647Z,5.35
2023-08-03T00:47:12.858Z,3.30
2023-08-03T00:47:24.779Z,4.20
2023-08-03T00:47:36.697Z,5.70
2023-08-03T00:47:49.019Z,5.32
2023-08-03T00:48:01.128Z,4.63
2023-08-03T00:48:13.041Z,4.50
2023-08-03T00:48:25.267Z,4.80
2023-08-03T00:48:37.195Z,6.63
2023-08-03T00:48:48.878Z,6.90
2023-08-03T00:49:02.894Z,5.22
2023-08-03T00:49:14.819Z,3.88
2023-08-03T00:49:29.044Z,3.55
2023-08-03T00:49:40.814Z,4.10
2023-08-03T00:49:52.595Z,4.47
2023-08-03T00:50:05.152Z,4.28
2023-08-03T00:50:16.912Z,3.53
2023-08-03T00:50:28.743Z,4.25
2023-08-03T00:50:41.676Z,4.78
2023-08-03T00:50:53.858Z,5.32
2023-08-03T00:51:05.732Z,4.00
2023-08-03T00:51:18.840Z,4.53
2023-08-03T00:51:30.674Z,4.15
2023-08-03T00:51:45.534Z,4.82
2023-08-03T00:51:57.876Z,5.50
2023-08-03T00:52:09.750Z,5.38
2023-08-03T00:52:21.437Z,5.18
2023-08-03T00:52:34.794Z,5.15
2023-08-03T00:52:46.602Z,4.43
2023-08-03T00:52:59.387Z,3.55
2023-08-03T00:53:11.074Z,3.53
2023-08-03T00:53:23.108Z,4.18
2023-08-03T00:53:34.810Z,5.00
2023-08-03T00:53:47.253Z,4.72
2023-08-03T00:53:59.189Z,3.22
2023-08-03T00:54:11.871Z,3.38
2023-08-03T00:54:23.918Z,3.95
2023-08-03T00:54:37.388Z,4.07
2023-08-03T00:54:49.168Z,4.35
2023-08-03T00:55:00.840Z,4.45
2023-08-03T00:55:12.700Z,4.72
2023-08-03T00:55:24.353Z,3.92
2023-08-03T00:55:36.277Z,3.83
2023-08-03T00:55:48.989Z,4.30
2023-08-03T00:56:00.747Z,4.47
2023-08-03T00:56:12.480Z,4.47
2023-08-03T00:56:24.369Z,4.85
2023-08-03T00:56:36.210Z,4.78
2023-08-03T00:56:47.913Z,5.20
2023-08-03T00:56:59.601Z,5.28
2023-08-03T00:57:11.410Z,4.70
2023-08-03T00:57:23.055Z,4.35
2023-08-03T00:57:35.925Z,3.85
2023-08-03T00:57:47.581Z,4.43
2023-08-03T00:57:59.883Z,5.15
2023-08-03T00:58:11.653Z,4.53
2023-08-03T00:58:23.489Z,3.63
2023-08-03T00:58:35.524Z,4.60
2023-08-03T00:58:47.336Z,4.80
2023-08-03T00:58:59.169Z,4.63
2023-08-03T00:59:12.164Z,4.73
2023-08-03T00:59:23.940Z,4.83
2023-08-03T00:59:35.621Z,4.20
2023-08-03T00:59:50.447Z,3.67
2023-08-03T01:00:02.292Z,3.80
2023-08-03T01:00:14.682Z,3.97
2023-08-03T01:00:26.577Z,4.65
2023-08-03T01:00:38.442Z,4.55
2023-08-03T01:00:50.215Z,4.72
2023-08-03T01:01:02.041Z,4.38
2023-08-03T01:01:14.092Z,5.05
2023-08-03T01:01:27.814Z,5.30
2023-08-03T01:01:39.709Z,4.70
2023-08-03T01:01:52.563Z,3.97
2023-08-03T01:02:06.675Z,4.07
2023-08-03T01:02:18.614Z,3.95
2023-08-03T01:02:30.876Z,3.90
2023-08-03T01:02:42.773Z,3.58
2023-08-03T01:02:54.601Z,4.47
2023-08-03T01:03:06.435Z,5.28
2023-08-03T01:03:18.222Z,6.47
2023-08-03T01:03:30.224Z,6.15
2023-08-03T01:03:42.393Z,4.40
2023-08-03T01:03:55.724Z,3.67
2023-08-03T01:04:08.589Z,4.55
2023-08-03T01:04:20.335Z,5.35
2023-08-03T01:04:32.321Z,4.63
2023-08-03T01:04:44.370Z,5.75
2023-08-03T01:04:56.145Z,4.85
2023-08-03T01:05:08.112Z,4.07
2023-08-03T01:05:20.076Z,3.72
2023-08-03T01:05:33.665Z,3.63
2023-08-03T01:05:45.456Z,3.55
2023-08-03T01:05:58.291Z,3.33
2023-08-03T01:06:10.011Z,4.20
2023-08-03T01:06:23.338Z,3.47
2023-08-03T01:06:37.035Z,4.60
2023-08-03T01:06:48.844Z,5.15
2023-08-03T01:07:00.668Z,4.47
2023-08-03T01:07:12.674Z,4.13
2023-08-03T01:07:24.763Z,4.78
2023-08-03T01:07:37.468Z,5.85
2023-08-03T01:07:49.280Z,7.83
2023-08-03T01:08:00.923Z,6.43
2023-08-03T01:08:12.599Z,4.45
2023-08-03T01:08:24.686Z,3.90
2023-08-03T01:08:36.603Z,3.70
2023-08-03T01:08:48.349Z,4.73
2023-08-03T01:09:01.371Z,4.90
2023-08-03T01:09:13.235Z,6.05
2023-08-03T01:09:25.922Z,5.75
2023-08-03T01:09:37.616Z,4.22
2023-08-03T01:09:49.462Z,4.35
2023-08-03T01:10:01.248Z,3.85
2023-08-03T01:10:13.077Z,3.72
2023-08-03T01:10:25.282Z,3.45
2023-08-03T01:10:37.070Z,3.75
2023-08-03T01:10:48.910Z,4.38
2023-08-03T01:11:01.704Z,4.22
2023-08-03T01:11:13.507Z,3.60
2023-08-03T01:11:25.323Z,3.63
2023-08-03T01:11:36.999Z,3.50
2023-08-03T01:11:48.687Z,3.53
2023-08-03T01:12:00.579Z,3.42
2023-08-03T01:12:12.522Z,4.25
2023-08-03T01:12:24.249Z,4.85
2023-08-03T01:12:36.208Z,5.43
2023-08-03T01:12:48.231Z,4.60
2023-08-03T01:13:01.020Z,3.93
2023-08-03T01:13:13.692Z,3.25
2023-08-03T01:13:25.744Z,3.97
2023-08-03T01:13:37.580Z,4.15
2023-08-03T01:13:49.452Z,4.90
2023-08-03T01:14:01.442Z,4.20
2023-08-03T01:14:13.166Z,3.65
2023-08-03T01:14:25.157Z,2.92
2023-08-03T01:14:37.050Z,2.55
2023-08-03T01:14:49.906Z,4.38
2023-08-03T01:15:01.869Z,5.35
2023-08-03T01:15:13.570Z,5.63
2023-08-03T01:15:25.365Z,4.82
2023-08-03T01:15:37.105Z,5.55
2023-08-03T01:15:48.947Z,5.45
2023-08-03T01:16:01.221Z,4.45
2023-08-03T01:16:13.119Z,3.13
2023-08-03T01:16:25.698Z,3.17
2023-08-03T01:16:38.219Z,3.40
2023-08-03T01:16:51.229Z,3.72
2023-08-03T01:17:03.082Z,3.78
2023-08-03T01:17:14.981Z,4.88
2023-08-03T01:17:26.781Z,4.68
2023-08-03T01:17:38.680Z,4.22
2023-08-03T01:17:50.523Z,3.92
2023-08-03T01:18:02.364Z,4.03
2023-08-03T01:18:14.262Z,4.32
2023-08-03T01:18:26.965Z,3.95
2023-08-03T01:18:39.309Z,3.00
2023-08-03T01:18:51.873Z,4.10
2023-08-03T01:19:03.724Z,4.88
2023-08-03T01:19:16.632Z,4.03
2023-08-03T01:19:28.435Z,3.25
2023-08-03T01:19:40.299Z,3.63
2023-08-03T01:19:52.103Z,4.63
2023-08-03T01:20:04.497Z,5.72
2023-08-03T01:20:16.735Z,6.00
2023-08-03T01:20:30.353Z,6.75
2023-08-03T01:20:43.375Z,6.20
2023-08-03T01:20:55.313Z,4.70
2023-08-03T01:21:07.965Z,4.78
2023-08-03T01:21:20.536Z,4.05
2023-08-03T01:21:35.996Z,4.35
2023-08-03T01:21:48.036Z,4.72
2023-08-03T01:22:01.029Z,4.45
2023-08-03T01:22:15.502Z,3.80
2023-08-03T01:22:28.116Z,4.32
2023-08-03T01:22:43.142Z,4.10
2023-08-03T01:22:55.166Z,4.50
2023-08-03T01:23:06.964Z,5.07
2023-08-03T01:23:18.681Z,4.65
2023-08-03T01:23:30.419Z,3.45
2023-08-03T01:23:42.262Z,1.80
2023-08-03T01:23:54.161Z,3.70
2023-08-03T01:24:05.832Z,4.30
2023-08-03T01:24:18.497Z,4.97
2023-08-03T01:24:30.940Z,4.32
2023-08-03T01:24:42.764Z,3.45
2023-08-03T01:24:54.441Z,2.83
2023-08-03T01:25:07.487Z,2.92
2023-08-03T01:25:19.339Z,3.45
2023-08-03T01:25:31.092Z,4.57
2023-08-03T01:25:42.752Z,5.13
2023-08-03T01:25:54.443Z,4.35
2023-08-03T01:26:06.193Z,3.30
2023-08-03T01:26:19.103Z,3.78
2023-08-03T01:26:33.412Z,4.53
2023-08-03T01:26:45.631Z,4.82
2023-08-03T01:26:59.875Z,4.60
2023-08-03T01:27:11.550Z,4.50
2023-08-03T01:27:23.694Z,4.38
2023-08-03T01:27:35.378Z,4.82
2023-08-03T01:27:48.621Z,4.20
2023-08-03T01:28:01.806Z,4.70
2023-08-03T01:28:13.481Z,5.15
2023-08-03T01:28:25.300Z,6.18
2023-08-03T01:28:37.021Z,4.88
2023-08-03T01:28:48.875Z,4.30
2023-08-03T01:29:00.540Z,3.05
2023-08-03T01:29:12.698Z,3.30
2023-08-03T01:29:24.347Z,3.55
2023-08-03T01:29:36.157Z,4.05
2023-08-03T01:29:48.217Z,4.20
2023-08-03T01:30:00.872Z,5.10
2023-08-03T01:30:13.146Z,5.18
2023-08-03T01:30:24.830Z,5.30
2023-08-03T01:30:36.563Z,4.68
2023-08-03T01:30:49.305Z,3.67
2023-08-03T01:31:01.144Z,3.53
2023-08-03T01:31:13.118Z,3.15
2023-08-03T01:31:25.361Z,4.05
2023-08-03T01:31:37.406Z,4.47
2023-08-03T01:31:51.466Z,4.65
2023-08-03T01:32:03.486Z,4.70
2023-08-03T01:32:15.166Z,4.05
2023-08-03T01:32:27.072Z,2.95
2023-08-03T01:32:39.054Z,3.20
2023-08-03T01:32:50.805Z,3.28
2023-08-03T01:33:02.700Z,3.42
2023-08-03T01:33:14.509Z,4.38
2023-08-03T01:33:26.878Z,4.07
2023-08-03T01:33:38.974Z,4.30
2023-08-03T01:33:52.285Z,3.63
2023-08-03T01:34:04.014Z,4.32
2023-08-03T01:34:16.096Z,4.35
2023-08-03T01:34:28.940Z,4.93
2023-08-03T01:34:40.979Z,3.42
2023-08-03T01:34:52.901Z,3.05
2023-08-03T01:35:07.235Z,3.28
2023-08-03T01:35:19.113Z,5.38
2023-08-03T01:35:31.003Z,6.05
2023-08-03T01:35:43.870Z,5.90
2023-08-03T01:35:55.619Z,4.78
2023-08-03T01:36:07.329Z,4.35
2023-08-03T01:36:19.436Z,4.38
2023-08-03T01:36:31.333Z,5.00
2023-08-03T01:36:43.086Z,5.30
2023-08-03T01:36:55.237Z,5.30
2023-08-03T01:37:08.969Z,4.43
2023-08-03T01:37:20.844Z,3.42
2023-08-03T01:37:35.119Z,3.53
2023-08-03T01:37:48.624Z,3.42
2023-08-03T01:38:00.538Z,4.25
2023-08-03T01:38:13.898Z,4.50
2023-08-03T01:38:28.506Z,4.05
2023-08-03T01:38:40.447Z,3.50
2023-08-03T01:38:55.855Z,3.97
2023-08-03T01:39:08.445Z,4.00
2023-08-03T01:39:21.968Z,3.95
2023-08-03T01:39:33.699Z,4.05
2023-08-03T01:39:45.583Z,5.50
2023-08-03T01:39:57.369Z,6.28
2023-08-03T01:40:11.919Z,5.70
2023-08-03T01:40:23.612Z,3.97
2023-08-03T01:40:35.337Z,3.47
2023-08-03T01:40:47.313Z,3.25
2023-08-03T01:41:01.285Z,3.67
2023-08-03T01:41:13.138Z,3.95
2023-08-03T01:41:24.971Z,3.83
2023-08-03T01:41:37.330Z,4.85
2023-08-03T01:41:49.013Z,5.32
2023-08-03T01:42:00.762Z,4.70
2023-08-03T01:42:12.424Z,5.57
2023-08-03T01:42:24.337Z,4.45
2023-08-03T01:42:35.986Z,4.90
2023-08-03T01:42:48.952Z,4.68
2023-08-03T01:43:00.654Z,4.13
2023-08-03T01:43:12.490Z,3.95
2023-08-03T01:43:24.286Z,4.25
2023-08-03T01:43:36.230Z,5.68
2023-08-03T01:43:48.021Z,4.22
2023-08-03T01:44:19.532Z,3.67
2023-08-03T01:44:31.606Z,3.80
2023-08-03T01:44:44.498Z,3.88
2023-08-03T01:44:56.239Z,3.70
2023-08-03T01:45:08.607Z,3.95
2023-08-03T01:45:20.858Z,3.70
2023-08-03T01:45:32.614Z,3.72
2023-08-03T01:45:44.321Z,5.43
2023-08-03T01:45:56.114Z,5.20
2023-08-03T01:46:07.961Z,3.80
2023-08-03T01:46:20.000Z,3.03
2023-08-03T01:46:31.955Z,4.05
2023-08-03T01:46:43.698Z,3.35
2023-08-03T01:46:57.839Z,2.88
2023-08-03T01:47:11.071Z,3.22
2023-08-03T01:47:22.752Z,3.83
2023-08-03T01:47:34.690Z,4.00
2023-08-03T01:47:46.638Z,4.55
2023-08-03T01:47:58.430Z,4.00
2023-08-03T01:48:10.226Z,3.63
2023-08-03T01:48:22.011Z,3.33
2023-08-03T01:48:33.741Z,4.60
2023-08-03T01:48:46.457Z,4.63
2023-08-03T01:48:58.319Z,4.00
2023-08-03T01:49:10.273Z,3.75
2023-08-03T01:49:23.104Z,4.40
2023-08-03T01:49:35.278Z,5.00
2023-08-03T01:49:46.934Z,4.05
2023-08-03T01:49:58.675Z,3.53
2023-08-03T01:50:10.420Z,3.75
2023-08-03T01:50:22.224Z,4.07
2023-08-03T01:50:34.929Z,4.47
2023-08-03T01:50:46.696Z,3.90
2023-08-03T01:50:58.460Z,4.28
2023-08-03T01:51:10.165Z,4.03
2023-08-03T01:51:21.985Z,4.07
2023-08-03T01:51:33.695Z,3.85
2023-08-03T01:51:45.726Z,3.88
2023-08-03T01:51:57.908Z,3.90
2023-08-03T01:52:09.730Z,4.07
2023-08-03T01:52:22.474Z,3.92
2023-08-03T01:52:34.131Z,2.92
2023-08-03T01:52:45.960Z,2.88
2023-08-03T01:52:58.962Z,3.72
2023-08-03T01:53:10.768Z,3.45
2023-08-03T01:53:22.520Z,3.55
2023-08-03T01:53:34.224Z,3.90
2023-08-03T01:53:45.887Z,4.07
2023-08-03T01:53:57.904Z,4.63
2023-08-03T01:54:10.857Z,4.68
2023-08-03T01:54:23.664Z,4.43
2023-08-03T01:54:35.314Z,4.70
2023-08-03T01:54:47.269Z,4.03
2023-08-03T01:54:59.046Z,3.10
2023-08-03T01:55:10.894Z,3.10
2023-08-03T01:55:22.765Z,3.63
2023-08-03T01:55:34.459Z,4.70
2023-08-03T01:55:46.851Z,4.78
2023-08-03T01:55:58.780Z,4.60
2023-08-03T01:56:11.397Z,3.55
2023-08-03T01:56:23.151Z,2.60
2023-08-03T01:56:35.121Z,2.45
2023-08-03T01:56:47.160Z,2.90
2023-08-03T01:56:58.900Z,3.58
2023-08-03T01:57:10.803Z,3.72
2023-08-03T01:57:22.652Z,4.05
2023-08-03T01:57:34.372Z,4.70
2023-08-03T01:57:46.008Z,4.53
2023-08-03T01:57:58.877Z,4.10
2023-08-03T01:58:12.778Z,3.05
2023-08-03T01:58:24.670Z,3.45
2023-08-03T01:58:36.369Z,4.00
2023-08-03T01:58:48.043Z,3.78
2023-08-03T01:58:59.745Z,3.38
2023-08-03T01:59:11.818Z,3.00
2023-08-03T01:59:23.758Z,3.42
2023-08-03T01:59:35.534Z,4.13
2023-08-03T01:59:48.214Z,4.65
2023-08-03T02:00:00.004Z,5.75
2023-08-03T02:00:12.975Z,5.80
2023-08-03T02:00:25.348Z,3.72
2023-08-03T02:00:36.983Z,3.28
2023-08-03T02:00:50.192Z,3.53
2023-08-03T02:01:02.143Z,3.13
2023-08-03T02:01:13.873Z,3.17
2023-08-03T02:01:25.605Z,3.30
2023-08-03T02:01:38.335Z,3.45
2023-08-03T02:01:50.245Z,2.70
2023-08-03T02:02:02.019Z,2.50
2023-08-03T02:02:14.117Z,4.03
2023-08-03T02:02:25.940Z,6.93
2023-08-03T02:02:37.737Z,6.80
2023-08-03T02:02:49.877Z,6.13
2023-08-03T02:03:01.649Z,3.40
2023-08-03T02:03:14.493Z,4.03
2023-08-03T02:03:26.125Z,3.92
2023-08-03T02:03:37.841Z,4.25
2023-08-03T02:03:49.640Z,4.07
2023-08-03T02:04:01.596Z,3.13
2023-08-03T02:04:15.426Z,3.00
2023-08-03T02:04:27.591Z,4.78
2023-08-03T02:04:39.396Z,4.93
2023-08-03T02:04:51.186Z,4.22
2023-08-03T02:05:03.914Z,4.15
2023-08-03T02:05:15.982Z,4.15
2023-08-03T02:05:27.735Z,3.83
2023-08-03T02:05:39.505Z,3.88
2023-08-03T02:05:51.347Z,3.60
2023-08-03T02:06:03.253Z,3.30
2023-08-03T02:06:15.254Z,3.20
2023-08-03T02:06:27.156Z,3.70
2023-08-03T02:06:40.025Z,3.80
2023-08-03T02:06:52.873Z,3.25
2023-08-03T02:07:10.738Z,2.78
2023-08-03T02:07:41.426Z,4.43
2023-08-03T02:07:55.461Z,4.07
2023-08-03T02:08:08.872Z,3.88
2023-08-03T02:08:20.732Z,3.60
2023-08-03T02:08:33.425Z,2.83
2023-08-03T02:08:45.304Z,4.18
2023-08-03T02:08:57.093Z,4.95
2023-08-03T02:09:09.798Z,4.57
2023-08-03T02:09:21.742Z,3.55
2023-08-03T02:09:33.546Z,3.75
2023-08-03T02:09:45.401Z,4.15
2023-08-03T02:09:57.230Z,4.05
2023-08-03T02:10:10.001Z,3.70
2023-08-03T02:10:22.779Z,3.78
2023-08-03T02:10:34.783Z,4.68
2023-08-03T02:10:46.555Z,5.15
2023-08-03T02:10:58.386Z,4.10
2023-08-03T02:11:10.306Z,2.85
2023-08-03T02:11:23.068Z,3.97
2023-08-03T02:11:35.324Z,4.80
2023-08-03T02:11:47.218Z,4.80
2023-08-03T02:11:59.120Z,4.10
2023-08-03T02:12:11.049Z,4.30
2023-08-03T02:12:22.716Z,5.45
2023-08-03T02:12:34.464Z,5.30
2023-08-03T02:12:46.183Z,4.53
2023-08-03T02:12:58.863Z,3.47
2023-08-03T02:13:10.569Z,2.72
2023-08-03T02:13:22.299Z,2.67
2023-08-03T02:13:34.438Z,3.17
2023-08-03T02:13:46.183Z,3.40
2023-08-03T02:13:58.143Z,4.03
2023-08-03T02:14:09.833Z,3.55
2023-08-03T02:14:21.601Z,4.00
2023-08-03T02:14:33.448Z,3.40
2023-08-03T02:14:45.308Z,3.90
2023-08-03T02:14:57.076Z,3.33
2023-08-03T02:15:10.242Z,2.97
2023-08-03T02:15:23.175Z,2.70
2023-08-03T02:15:35.169Z,3.03
2023-08-03T02:15:47.384Z,3.17
2023-08-03T02:16:05.312Z,3.30
2023-08-03T02:16:25.205Z,3.40
2023-08-03T02:16:37.657Z,3.05
2023-08-03T02:16:50.379Z,3.38
2023-08-03T02:17:02.311Z,3.60
2023-08-03T02:17:14.135Z,3.63
2023-08-03T02:17:26.213Z,3.85
2023-08-03T02:17:38.039Z,3.55
2023-08-03T02:17:49.876Z,3.47
2023-08-03T02:18:01.916Z,3.55
2023-08-03T02:18:13.627Z,4.18
2023-08-03T02:18:25.456Z,3.92
2023-08-03T02:18:38.196Z,3.50
2023-08-03T02:18:51.427Z,3.85
2023-08-03T02:19:03.111Z,4.88
2023-08-03T02:19:15.030Z,4.60
2023-08-03T02:19:26.958Z,4.30
2023-08-03T02:19:38.861Z,4.38
2023-08-03T02:19:50.795Z,4.97
2023-08-03T02:20:02.485Z,5.32
2023-08-03T02:20:14.908Z,5.68
2023-08-03T02:20:27.739Z,4.40
2023-08-03T02:20:39.555Z,3.17
2023-08-03T02:20:51.313Z,3.38
2023-08-03T02:21:03.050Z,3.33
2023-08-03T02:21:14.764Z,3.53
2023-08-03T02:21:26.427Z,3.97
2023-08-03T02:21:38.142Z,4.90
2023-08-03T02:21:49.806Z,5.50
2023-08-03T02:22:02.451Z,4.50
2023-08-03T02:22:14.134Z,2.33
2023-08-03T02:22:25.789Z,2.20
2023-08-03T02:22:37.588Z,2.47
2023-08-03T02:22:50.165Z,2.63
2023-08-03T02:23:02.071Z,2.30
2023-08-03T02:23:15.068Z,2.92
2023-08-03T02:23:27.172Z,3.95
2023-08-03T02:23:38.927Z,3.78
2023-08-03T02:23:51.728Z,2.83
2023-08-03T02:24:03.637Z,3.72
2023-08-03T02:24:15.414Z,3.65
2023-08-03T02:24:27.125Z,3.38
2023-08-03T02:24:39.040Z,2.50
2023-08-03T02:24:51.091Z,3.17
2023-08-03T02:25:03.022Z,3.17
2023-08-03T02:25:16.224Z,3.17
2023-08-03T02:25:28.239Z,3.03
2023-08-03T02:25:39.950Z,2.85
2023-08-03T02:25:53.098Z,2.72
2023-08-03T02:26:05.044Z,2.70
2023-08-03T02:26:16.749Z,3.10
2023-08-03T02:26:28.403Z,4.25
2023-08-03T02:26:40.363Z,4.85
2023-08-03T02:26:52.325Z,5.90
2023-08-03T02:27:04.504Z,5.63
2023-08-03T02:27:16.195Z,4.80
2023-08-03T02:27:28.929Z,3.58
2023-08-03T02:27:41.369Z,2.75
2023-08-03T02:27:55.504Z,2.85
2023-08-03T02:28:07.232Z,3.42
2023-08-03T02:28:19.124Z,2.55
2023-08-03T02:28:31.675Z,2.65
2023-08-03T02:28:43.618Z,3.15
2023-08-03T02:28:55.583Z,3.17
2023-08-03T02:29:08.483Z,3.20
2023-08-03T02:29:20.421Z,3.33
2023-08-03T02:29:32.209Z,3.35
2023-08-03T02:29:44.116Z,2.73
2023-08-03T02:29:55.916Z,2.63
2023-08-03T02:30:10.926Z,2.47
2023-08-03T02:30:22.986Z,2.33
2023-08-03T02:30:36.012Z,2.63
2023-08-03T02:30:47.913Z,2.92
2023-08-03T02:30:59.937Z,2.72
2023-08-03T02:31:12.835Z,3.15
2023-08-03T02:31:24.900Z,3.97
2023-08-03T02:31:36.807Z,4.00
2023-08-03T02:31:48.533Z,2.92
2023-08-03T02:32:00.307Z,2.97
2023-08-03T02:32:12.348Z,3.13
2023-08-03T02:32:25.764Z,3.03
2023-08-03T02:32:38.660Z,2.63
2023-08-03T02:32:50.617Z,3.28
2023-08-03T02:33:02.372Z,3.72
2023-08-03T02:33:14.311Z,4.10
2023-08-03T02:33:26.400Z,3.88
2023-08-03T02:33:39.512Z,3.53
2023-08-03T02:33:51.511Z,3.45
2023-08-03T02:34:03.330Z,4.38
2023-08-03T02:34:15.135Z,4.53
2023-08-03T02:34:26.782Z,3.85
2023-08-03T02:34:38.509Z,3.15
2023-08-03T02:34:50.196Z,3.70
2023-08-03T02:35:02.090Z,2.90
2023-08-03T02:35:14.987Z,3.70
2023-08-03T02:35:26.795Z,3.50
2023-08-03T02:35:40.493Z,4.00
2023-08-03T02:35:52.237Z,4.85
2023-08-03T02:36:04.255Z,4.03
2023-08-03T02:36:15.955Z,3.65
2023-08-03T02:36:27.691Z,3.53
2023-08-03T02:36:39.362Z,3.17
2023-08-03T02:36:51.310Z,2.55
2023-08-03T02:37:03.366Z,2.97
2023-08-03T02:37:16.099Z,3.78
2023-08-03T02:37:28.120Z,3.85
2023-08-03T02:37:39.783Z,3.58
2023-08-03T02:37:51.533Z,3.72
2023-08-03T02:38:03.302Z,3.22
2023-08-03T02:38:16.489Z,3.97
2023-08-03T02:38:28.209Z,4.10
2023-08-03T02:38:41.047Z,3.33
2023-08-03T02:38:52.763Z,3.97
2023-08-03T02:39:04.932Z,4.97
2023-08-03T02:39:16.852Z,5.45
2023-08-03T02:39:28.546Z,4.85
2023-08-03T02:39:40.394Z,3.00
2023-08-03T02:39:52.070Z,2.83
2023-08-03T02:40:04.856Z,3.05
2023-08-03T02:40:16.607Z,3.72
2023-08-03T02:40:29.268Z,3.55
2023-08-03T02:40:41.128Z,2.60
2023-08-03T02:40:52.960Z,2.00
2023-08-03T02:41:04.907Z,2.13
2023-08-03T02:41:16.588Z,2.20
2023-08-03T02:41:28.374Z,2.42
2023-08-03T02:41:40.260Z,2.05
2023-08-03T02:41:53.929Z,2.15
2023-08-03T02:42:06.395Z,2.78
2023-08-03T02:42:18.473Z,3.40
2023-08-03T02:42:30.240Z,3.47
2023-08-03T02:42:41.932Z,2.72
2023-08-03T02:42:53.622Z,2.78